Terminal Aerodrome Forecast
Issued by NWS

Home | Current Version | Previous Version | Graphics & Text | Print | Product List | Glossary On
Versions: 1 2 3 4 5 6 7 8 9 10 11 12 13 14 15 16
479
FTUS43 KICT 201740
TAFHUT
TAF
KHUT 201740Z 2018/2118 18025G34KT P6SM SCT045 SCT150
     FM210300 17023G32KT P6SM BKN030
     FM210600 18020G28KT P6SM BKN015
     FM211600 19019G28KT P6SM SCT015 BKN025=

USA.gov is the U.S. government's official web portal to all federal, state and local government web resources and services.